createdAt,value
2019-03-23T00:00:22.414Z,0.00
2019-03-23T00:01:22.408Z,0.00
2019-03-23T00:02:22.403Z,0.00
2019-03-23T00:03:22.385Z,0.00
2019-03-23T00:04:22.387Z,0.00
2019-03-23T00:05:22.360Z,0.00
2019-03-23T00:06:30.404Z,0.00
2019-03-23T00:07:23.337Z,0.00
2019-03-23T00:08:22.361Z,0.00
2019-03-23T00:09:22.317Z,0.00
2019-03-23T00:10:22.311Z,0.00
2019-03-23T00:11:22.301Z,0.00
2019-03-23T00:12:22.286Z,0.00
2019-03-23T00:13:22.279Z,0.00
2019-03-23T00:14:22.271Z,0.00
2019-03-23T00:15:22.252Z,0.00
2019-03-23T00:16:22.247Z,0.00
2019-03-23T00:17:22.235Z,0.00
2019-03-23T00:18:22.226Z,0.00
2019-03-23T00:19:22.275Z,0.00
2019-03-23T00:20:22.204Z,0.00
2019-03-23T00:21:22.192Z,0.00
2019-03-23T00:22:22.177Z,0.00
2019-03-23T00:23:22.175Z,0.00
2019-03-23T00:24:22.162Z,0.00
2019-03-23T00:25:22.163Z,0.00
2019-03-23T00:26:22.139Z,0.00
2019-03-23T00:27:22.124Z,0.00
2019-03-23T00:28:22.120Z,0.00
2019-03-23T00:29:22.111Z,0.00
2019-03-23T00:30:22.107Z,0.00
2019-03-23T00:31:22.086Z,0.00
2019-03-23T00:32:22.076Z,0.00
2019-03-23T00:33:22.072Z,0.00
2019-03-23T00:34:22.102Z,0.00
2019-03-23T00:35:22.041Z,0.00
2019-03-23T00:36:22.029Z,0.00
2019-03-23T00:37:22.024Z,0.00
2019-03-23T00:38:22.013Z,0.00
2019-03-23T00:39:22.002Z,0.00
2019-03-23T00:40:21.993Z,0.00
2019-03-23T00:41:21.982Z,0.00
2019-03-23T00:42:22.015Z,0.00
2019-03-23T00:43:21.993Z,0.00
2019-03-23T00:44:21.947Z,0.00
2019-03-23T00:45:21.939Z,0.00
2019-03-23T00:46:21.926Z,0.00
2019-03-23T00:47:21.912Z,0.00
2019-03-23T00:48:21.899Z,0.00
2019-03-23T00:49:21.902Z,0.00
2019-03-23T00:50:21.892Z,0.00
2019-03-23T00:51:21.869Z,0.00
2019-03-23T00:52:21.889Z,0.00
2019-03-23T00:53:21.850Z,0.00
2019-03-23T00:54:21.840Z,0.00
2019-03-23T00:55:21.824Z,0.00
2019-03-23T00:56:21.814Z,0.00
2019-03-23T00:57:21.810Z,0.00
2019-03-23T00:58:21.802Z,0.00
2019-03-23T00:59:21.783Z,0.00
2019-03-23T01:00:36.377Z,0.00
2019-03-23T01:01:21.776Z,0.00
2019-03-23T01:02:21.757Z,0.00
2019-03-23T01:03:21.750Z,0.00
2019-03-23T01:04:21.730Z,0.00
2019-03-23T01:05:21.719Z,0.00
2019-03-23T01:06:21.722Z,0.00
2019-03-23T01:07:21.697Z,0.00
2019-03-23T01:08:21.692Z,0.00
2019-03-23T01:09:21.685Z,0.00
2019-03-23T01:10:21.663Z,0.00
2019-03-23T01:11:21.659Z,0.00
2019-03-23T01:12:21.678Z,0.00
2019-03-23T01:13:21.637Z,0.00
2019-03-23T01:14:21.622Z,0.00
2019-03-23T01:15:21.620Z,0.00
2019-03-23T01:16:21.601Z,0.00
2019-03-23T01:17:21.589Z,0.00
2019-03-23T01:18:21.589Z,0.00
2019-03-23T01:19:21.577Z,0.00
2019-03-23T01:20:21.570Z,0.00
2019-03-23T01:21:21.548Z,0.00
2019-03-23T01:22:21.537Z,0.00
2019-03-23T01:23:21.531Z,0.00
2019-03-23T01:24:21.546Z,0.00
2019-03-23T01:25:21.511Z,0.00
2019-03-23T01:26:21.493Z,0.00
2019-03-23T01:27:21.492Z,0.00
2019-03-23T01:28:21.488Z,0.00
2019-03-23T01:29:21.466Z,0.00
2019-03-23T01:30:21.461Z,0.00
2019-03-23T01:31:21.442Z,0.00
2019-03-23T01:32:21.429Z,0.00
2019-03-23T01:33:21.421Z,0.00
2019-03-23T01:34:21.409Z,0.00
2019-03-23T01:35:21.434Z,0.00
2019-03-23T01:36:21.388Z,0.00
2019-03-23T01:37:21.381Z,0.00
2019-03-23T01:38:21.367Z,0.00
2019-03-23T01:39:21.360Z,0.00
2019-03-23T01:40:21.346Z,0.00
2019-03-23T01:41:21.370Z,0.00
2019-03-23T01:42:21.325Z,0.00
2019-03-23T01:43:21.314Z,0.00
2019-03-23T01:44:21.303Z,0.00
2019-03-23T01:45:21.299Z,0.00
2019-03-23T01:46:21.295Z,0.00
2019-03-23T01:47:21.288Z,0.00
2019-03-23T01:48:21.267Z,0.00
2019-03-23T01:49:21.257Z,0.00
2019-03-23T01:50:21.240Z,0.00
2019-03-23T01:51:21.248Z,0.00
2019-03-23T01:52:21.229Z,0.00
2019-03-23T01:53:21.213Z,0.00
2019-03-23T01:54:21.197Z,0.00
2019-03-23T01:55:21.185Z,0.00
2019-03-23T01:56:21.175Z,0.00
2019-03-23T01:57:21.181Z,0.00
2019-03-23T01:58:21.157Z,0.00
2019-03-23T01:59:21.147Z,0.00
2019-03-23T02:00:21.134Z,0.00
2019-03-23T02:01:21.136Z,0.00
2019-03-23T02:02:21.123Z,0.00
2019-03-23T02:03:21.112Z,0.00
2019-03-23T02:04:21.100Z,0.00
2019-03-23T02:05:21.085Z,0.00
2019-03-23T02:06:21.075Z,0.00
2019-03-23T02:07:21.058Z,0.00
2019-03-23T02:08:21.059Z,0.00
2019-03-23T02:09:21.044Z,0.00
2019-03-23T02:10:21.028Z,0.00
2019-03-23T02:11:21.018Z,0.00
2019-03-23T02:12:21.043Z,0.00
2019-03-23T02:13:20.994Z,0.00
2019-03-23T02:14:20.993Z,0.00
2019-03-23T02:15:20.980Z,0.00
2019-03-23T02:16:20.968Z,0.00
2019-03-23T02:17:20.967Z,0.00
2019-03-23T02:18:20.955Z,0.00
2019-03-23T02:19:20.935Z,0.00
2019-03-23T02:20:20.922Z,0.00
2019-03-23T02:21:20.910Z,0.00
2019-03-23T02:22:20.913Z,0.00
2019-03-23T02:23:20.899Z,0.00
2019-03-23T02:24:20.889Z,0.00
2019-03-23T02:25:20.873Z,0.00
2019-03-23T02:26:20.858Z,0.00
2019-03-23T02:27:20.849Z,0.00
2019-03-23T02:28:20.851Z,0.00
2019-03-23T02:29:20.836Z,0.00
2019-03-23T02:30:20.826Z,0.00
2019-03-23T02:31:20.810Z,0.00
2019-03-23T02:32:20.806Z,0.00
2019-03-23T02:33:20.918Z,0.00
2019-03-23T02:34:20.774Z,0.00
2019-03-23T02:35:20.784Z,0.00
2019-03-23T02:36:20.761Z,0.00
2019-03-23T02:37:27.695Z,0.00
2019-03-23T02:38:21.731Z,0.00
2019-03-23T02:39:20.729Z,0.00
2019-03-23T02:40:20.724Z,0.00
2019-03-23T02:41:20.702Z,0.00
2019-03-23T02:42:20.699Z,0.00
2019-03-23T02:43:20.703Z,0.00
2019-03-23T02:44:20.673Z,0.00
2019-03-23T02:45:20.673Z,0.00
2019-03-23T02:46:20.657Z,0.00
2019-03-23T02:47:20.641Z,0.00
2019-03-23T02:48:20.631Z,0.00
2019-03-23T02:49:20.618Z,0.00
2019-03-23T02:50:20.613Z,0.00
2019-03-23T02:51:20.605Z,0.00
2019-03-23T02:52:20.583Z,0.00
2019-03-23T02:53:20.581Z,0.00
2019-03-23T02:54:20.564Z,0.00
2019-03-23T02:55:20.552Z,0.00
2019-03-23T02:56:20.560Z,0.00
2019-03-23T02:57:20.535Z,0.00
2019-03-23T02:58:20.520Z,0.00
2019-03-23T02:59:20.508Z,0.00
2019-03-23T03:00:20.504Z,0.00
2019-03-23T03:01:20.486Z,0.00
2019-03-23T03:02:20.518Z,0.00
2019-03-23T03:03:20.466Z,0.00
2019-03-23T03:04:20.460Z,0.00
2019-03-23T03:05:20.446Z,0.00
2019-03-23T03:06:20.449Z,0.00
2019-03-23T03:07:20.431Z,0.00
2019-03-23T03:08:20.429Z,0.00
2019-03-23T03:09:20.408Z,0.00
2019-03-23T03:10:20.401Z,0.00
2019-03-23T03:11:20.392Z,0.00
2019-03-23T03:12:20.376Z,0.00
2019-03-23T03:13:20.368Z,0.00
2019-03-23T03:14:20.353Z,0.00
2019-03-23T03:15:20.351Z,0.00
2019-03-23T03:16:20.332Z,0.00
2019-03-23T03:17:20.337Z,0.00
2019-03-23T03:18:20.312Z,0.00
2019-03-23T03:19:20.336Z,0.00
2019-03-23T03:20:20.283Z,0.00
2019-03-23T03:21:20.283Z,0.00
2019-03-23T03:22:20.273Z,0.00
2019-03-23T03:23:20.307Z,0.00
2019-03-23T03:24:20.247Z,0.00
2019-03-23T03:25:20.241Z,0.00
2019-03-23T03:26:20.223Z,0.00
2019-03-23T03:27:20.225Z,0.00
2019-03-23T03:28:20.207Z,0.00
2019-03-23T03:29:20.189Z,0.00
2019-03-23T03:30:20.189Z,0.00
2019-03-23T03:31:20.174Z,0.00
2019-03-23T03:32:20.176Z,0.00
2019-03-23T03:33:20.172Z,0.00
2019-03-23T03:34:20.143Z,0.00
2019-03-23T03:35:20.131Z,0.00
2019-03-23T03:36:20.134Z,0.00
2019-03-23T03:37:20.137Z,0.00
2019-03-23T03:38:20.094Z,0.00
2019-03-23T03:39:20.084Z,0.00
2019-03-23T03:40:20.079Z,0.00
2019-03-23T03:41:20.066Z,0.00
2019-03-23T03:42:20.059Z,0.00
2019-03-23T03:43:20.056Z,0.00
2019-03-23T03:44:20.030Z,0.00
2019-03-23T03:45:20.020Z,0.00
2019-03-23T03:46:20.010Z,0.00
2019-03-23T03:47:20.001Z,0.00
2019-03-23T03:48:20.022Z,0.00
2019-03-23T03:49:19.983Z,0.00
2019-03-23T03:50:19.972Z,0.00
2019-03-23T03:51:19.968Z,0.00
2019-03-23T03:52:19.951Z,0.00
2019-03-23T03:53:19.934Z,0.00
2019-03-23T03:54:19.934Z,0.00
2019-03-23T03:55:19.921Z,0.00
2019-03-23T03:56:19.910Z,0.00
2019-03-23T03:57:19.897Z,0.00
2019-03-23T03:58:19.883Z,0.00
2019-03-23T03:59:19.886Z,0.00
2019-03-23T04:00:19.874Z,0.00
2019-03-23T04:01:19.856Z,0.00
2019-03-23T04:02:19.844Z,0.00
2019-03-23T04:03:19.830Z,0.00
2019-03-23T04:04:19.853Z,0.00
2019-03-23T04:05:19.813Z,0.00
2019-03-23T04:06:19.809Z,0.00
2019-03-23T04:07:19.787Z,0.00
2019-03-23T04:08:19.779Z,0.00
2019-03-23T04:09:19.777Z,0.00
2019-03-23T04:10:19.793Z,0.00
2019-03-23T04:11:19.749Z,0.00
2019-03-23T04:12:19.732Z,0.00
2019-03-23T04:13:19.726Z,0.00
2019-03-23T04:14:19.712Z,0.00
2019-03-23T04:15:19.713Z,0.00
2019-03-23T04:16:19.698Z,0.00
2019-03-23T04:17:19.697Z,0.00
2019-03-23T04:18:19.681Z,0.00
2019-03-23T04:19:19.671Z,0.00
2019-03-23T04:20:19.661Z,0.00
2019-03-23T04:21:19.650Z,0.00
2019-03-23T04:22:19.626Z,0.00
2019-03-23T04:23:19.622Z,0.00
2019-03-23T04:24:19.608Z,0.00
2019-03-23T04:25:19.594Z,0.00
2019-03-23T04:26:19.599Z,0.00
2019-03-23T04:27:19.584Z,0.00
2019-03-23T04:28:19.575Z,0.00
2019-03-23T04:29:19.559Z,0.00
2019-03-23T04:30:19.553Z,0.00
2019-03-23T04:31:19.535Z,0.00
2019-03-23T04:32:19.562Z,0.00
2019-03-23T04:33:19.514Z,0.00
2019-03-23T04:34:19.501Z,4.00
2019-03-23T04:35:19.499Z,4.00
2019-03-23T04:36:19.480Z,0.00
2019-03-23T04:37:19.471Z,0.00
2019-03-23T04:38:22.958Z,4.00
2019-03-23T04:39:19.452Z,0.00
2019-03-23T04:40:19.442Z,4.00
2019-03-23T04:41:19.431Z,4.00
2019-03-23T04:42:19.422Z,4.00
2019-03-23T04:43:19.403Z,4.00
2019-03-23T04:44:19.392Z,8.00
2019-03-23T04:45:19.382Z,12.00
2019-03-23T04:46:19.378Z,12.00
2019-03-23T04:47:19.384Z,12.00
2019-03-23T04:48:19.356Z,12.00
2019-03-23T04:49:19.347Z,16.00
2019-03-23T04:50:19.339Z,16.00
2019-03-23T04:51:19.323Z,20.00
2019-03-23T04:52:19.324Z,24.00
2019-03-23T04:53:19.303Z,28.00
2019-03-23T04:54:19.289Z,28.00
2019-03-23T04:55:19.286Z,36.00
2019-03-23T04:56:19.271Z,40.00
2019-03-23T04:57:19.262Z,48.00
2019-03-23T04:58:19.257Z,56.00
2019-03-23T04:59:19.251Z,60.00
2019-03-23T05:00:19.232Z,68.00
2019-03-23T05:01:19.222Z,72.00
2019-03-23T05:02:19.208Z,80.00
2019-03-23T05:03:19.200Z,88.00
2019-03-23T05:04:19.181Z,96.00
2019-03-23T05:05:19.180Z,108.00
2019-03-23T05:06:19.161Z,116.00
2019-03-23T05:07:19.150Z,128.00
2019-03-23T05:08:19.148Z,140.00
2019-03-23T05:09:19.135Z,152.00
2019-03-23T05:10:19.123Z,164.00
2019-03-23T05:11:19.108Z,176.00
2019-03-23T05:12:19.103Z,188.00
2019-03-23T05:13:19.127Z,204.00
2019-03-23T05:14:19.082Z,220.00
2019-03-23T05:15:19.069Z,232.00
2019-03-23T05:16:19.061Z,248.00
2019-03-23T05:17:19.045Z,260.00
2019-03-23T05:18:19.042Z,276.00
2019-03-23T05:19:19.063Z,292.00
2019-03-23T05:20:19.013Z,320.00
2019-03-23T05:21:19.008Z,336.00
2019-03-23T05:22:18.992Z,356.00
2019-03-23T05:23:18.994Z,380.00
2019-03-23T05:24:18.974Z,404.00
2019-03-23T05:25:18.975Z,424.00
2019-03-23T05:26:18.956Z,440.00
2019-03-23T05:27:18.946Z,468.00
2019-03-23T05:28:18.931Z,484.00
2019-03-23T05:29:18.934Z,504.00
2019-03-23T05:30:18.919Z,524.00
2019-03-23T05:31:18.906Z,560.00
2019-03-23T05:32:18.889Z,572.00
2019-03-23T05:33:18.878Z,616.00
2019-03-23T05:34:18.877Z,640.00
2019-03-23T05:35:18.866Z,640.00
2019-03-23T05:36:18.856Z,688.00
2019-03-23T05:37:18.835Z,724.00
2019-03-23T05:38:18.828Z,748.00
2019-03-23T05:39:18.836Z,772.00
2019-03-23T05:40:18.802Z,792.00
2019-03-23T05:41:18.792Z,844.00
2019-03-23T05:42:18.798Z,856.00
2019-03-23T05:43:18.786Z,872.00
2019-03-23T05:44:18.764Z,912.00
2019-03-23T05:45:18.752Z,908.00
2019-03-23T05:46:18.760Z,956.00
2019-03-23T05:47:18.729Z,1000.00
2019-03-23T05:48:18.719Z,1024.00
2019-03-23T05:49:18.729Z,1056.00
2019-03-23T05:50:18.702Z,1068.00
2019-03-23T05:51:18.708Z,1072.00
2019-03-23T05:52:18.682Z,1128.00
2019-03-23T05:53:18.667Z,1176.00
2019-03-23T05:54:18.656Z,1160.00
2019-03-23T05:55:18.646Z,1204.00
2019-03-23T05:56:18.647Z,1248.00
2019-03-23T05:57:19.871Z,1288.00
2019-03-23T05:58:18.621Z,1360.00
2019-03-23T05:59:18.608Z,1344.00
2019-03-23T06:00:18.600Z,1400.00
2019-03-23T06:01:18.613Z,1464.00
2019-03-23T06:02:18.571Z,1464.00
2019-03-23T06:03:18.564Z,1552.00
2019-03-23T06:04:18.560Z,1584.00
2019-03-23T06:05:18.540Z,1648.00
2019-03-23T06:06:18.529Z,1632.00
2019-03-23T06:07:18.525Z,1596.00
2019-03-23T06:08:18.511Z,1716.00
2019-03-23T06:09:18.504Z,1900.00
2019-03-23T06:10:18.492Z,1912.00
2019-03-23T06:11:18.482Z,1924.00
2019-03-23T06:12:18.489Z,2100.00
2019-03-23T06:13:18.466Z,2012.00
2019-03-23T06:14:18.453Z,2072.00
2019-03-23T06:15:18.440Z,2052.00
2019-03-23T06:16:18.437Z,2216.00
2019-03-23T06:17:18.418Z,2304.00
2019-03-23T06:18:18.418Z,2416.00
2019-03-23T06:19:18.399Z,2428.00
2019-03-23T06:20:18.387Z,2436.00
2019-03-23T06:21:18.372Z,2292.00
2019-03-23T06:22:18.359Z,2480.00
2019-03-23T06:23:18.393Z,2368.00
2019-03-23T06:24:18.350Z,2372.00
2019-03-23T06:25:18.335Z,2604.00
2019-03-23T06:26:18.325Z,2580.00
2019-03-23T06:27:18.310Z,2728.00
2019-03-23T06:28:18.295Z,2744.00
2019-03-23T06:29:18.332Z,2748.00
2019-03-23T06:30:18.279Z,2912.00
2019-03-23T06:31:18.263Z,2800.00
2019-03-23T06:32:20.607Z,2860.00
2019-03-23T06:33:18.241Z,2708.00
2019-03-23T06:34:18.236Z,2864.00
2019-03-23T06:35:18.240Z,2916.00
2019-03-23T06:36:18.222Z,3200.00
2019-03-23T06:37:18.200Z,3416.00
2019-03-23T06:38:18.199Z,3660.00
2019-03-23T06:39:18.187Z,3968.00
2019-03-23T06:40:18.175Z,3700.00
2019-03-23T06:41:18.161Z,4024.00
2019-03-23T06:42:18.148Z,4300.00
2019-03-23T06:43:18.150Z,4028.00
2019-03-23T06:44:18.463Z,4472.00
2019-03-23T06:45:18.126Z,4540.00
2019-03-23T06:46:18.103Z,4592.00
2019-03-23T06:47:18.101Z,4856.00
2019-03-23T06:48:18.085Z,5076.00
2019-03-23T06:49:18.083Z,5300.00
2019-03-23T06:50:18.068Z,5008.00
2019-03-23T06:51:18.049Z,5276.00
2019-03-23T06:52:18.046Z,5120.00
2019-03-23T06:53:18.030Z,5772.00
2019-03-23T06:54:18.037Z,6052.00
2019-03-23T06:55:18.011Z,5116.00
2019-03-23T06:56:18.005Z,6188.00
2019-03-23T06:57:17.999Z,6140.00
2019-03-23T06:58:17.982Z,7528.00
2019-03-23T06:59:17.965Z,7504.00
2019-03-23T07:00:17.993Z,7352.00
2019-03-23T07:02:34.001Z,6684.00
2019-03-23T07:03:33.988Z,6472.00
2019-03-23T07:04:33.981Z,6144.00
2019-03-23T07:05:33.977Z,6032.00
2019-03-23T07:06:33.954Z,6052.00
2019-03-23T07:07:33.955Z,6056.00
2019-03-23T07:08:33.937Z,6080.00
2019-03-23T07:09:33.921Z,6124.00
2019-03-23T07:10:33.907Z,6140.00
2019-03-23T07:11:33.915Z,6068.00
2019-03-23T07:12:33.889Z,6056.00
2019-03-23T07:13:33.882Z,6056.00
2019-03-23T07:14:33.863Z,6040.00
2019-03-23T07:15:33.856Z,6064.00
2019-03-23T07:16:33.855Z,6092.00
2019-03-23T07:17:33.836Z,6076.00
2019-03-23T07:18:33.827Z,6080.00
2019-03-23T07:19:33.836Z,6124.00
2019-03-23T07:20:41.730Z,6176.00
2019-03-23T07:21:40.843Z,6208.00
2019-03-23T07:22:41.783Z,6216.00
2019-03-23T07:23:42.809Z,6344.00
2019-03-23T07:24:33.760Z,6428.00
2019-03-23T07:25:41.325Z,6488.00
2019-03-23T07:26:33.731Z,6524.00
2019-03-23T07:27:33.739Z,6600.00
2019-03-23T07:28:33.716Z,6540.00
2019-03-23T07:29:33.706Z,6568.00
2019-03-23T07:30:33.690Z,6768.00
2019-03-23T07:31:33.691Z,7068.00
2019-03-23T07:32:33.680Z,7408.00
2019-03-23T07:33:40.717Z,8036.00
2019-03-23T07:34:33.651Z,8748.00
2019-03-23T07:35:33.642Z,9620.00
2019-03-23T07:36:33.631Z,10412.00
2019-03-23T07:37:33.614Z,11604.00
2019-03-23T07:38:33.614Z,13332.00
2019-03-23T07:39:33.589Z,14808.00
2019-03-23T07:40:33.588Z,15184.00
2019-03-23T07:41:33.575Z,14944.00
2019-03-23T07:42:33.571Z,14608.00
2019-03-23T07:43:33.560Z,14936.00
2019-03-23T07:44:33.537Z,17184.00
2019-03-23T07:45:33.526Z,18240.00
2019-03-23T07:46:33.518Z,17920.00
2019-03-23T07:47:33.502Z,17760.00
2019-03-23T07:48:33.499Z,17536.00
2019-03-23T07:49:33.497Z,18432.00
2019-03-23T07:50:33.476Z,20992.00
2019-03-23T07:51:33.464Z,22624.00
2019-03-23T07:52:33.446Z,21568.00
2019-03-23T07:53:33.456Z,21440.00
2019-03-23T07:54:33.434Z,21824.00
2019-03-23T07:55:33.422Z,23264.00
2019-03-23T07:56:33.413Z,24160.00
2019-03-23T07:57:33.399Z,23968.00
2019-03-23T07:58:33.511Z,23488.00
2019-03-23T07:59:33.410Z,22720.00
2019-03-23T08:00:33.372Z,22336.00
2019-03-23T08:01:33.352Z,22816.00
2019-03-23T08:02:33.342Z,24352.00
2019-03-23T08:03:33.351Z,23712.00
2019-03-23T08:04:33.328Z,20768.00
2019-03-23T08:05:33.314Z,19328.00
2019-03-23T08:06:33.303Z,18912.00
2019-03-23T08:07:33.284Z,16352.00
2019-03-23T08:08:33.274Z,13604.00
2019-03-23T08:09:37.691Z,12076.00
2019-03-23T08:10:33.255Z,10612.00
2019-03-23T08:11:33.247Z,10196.00
2019-03-23T08:12:33.228Z,10092.00
2019-03-23T08:13:33.285Z,10024.00
2019-03-23T08:14:33.206Z,9900.00
2019-03-23T08:15:33.210Z,9856.00
2019-03-23T08:16:33.195Z,9640.00
2019-03-23T08:17:33.174Z,9524.00
2019-03-23T08:18:33.168Z,9792.00
2019-03-23T08:19:33.196Z,9840.00
2019-03-23T08:20:33.147Z,9840.00
2019-03-23T08:21:33.129Z,9804.00
2019-03-23T08:22:33.124Z,9704.00
2019-03-23T08:23:33.112Z,9708.00
2019-03-23T08:24:33.096Z,9856.00
2019-03-23T08:25:33.100Z,10004.00
2019-03-23T08:26:33.078Z,9916.00
2019-03-23T08:27:33.070Z,9888.00
2019-03-23T08:28:33.058Z,9892.00
2019-03-23T08:29:33.043Z,10040.00
2019-03-23T08:30:33.045Z,10164.00
2019-03-23T08:31:33.025Z,10476.00
2019-03-23T08:32:33.012Z,10552.00
2019-03-23T08:33:33.005Z,10588.00
2019-03-23T08:34:32.997Z,10604.00
2019-03-23T08:35:33.028Z,10728.00
2019-03-23T08:36:32.966Z,10876.00
2019-03-23T08:37:32.959Z,10788.00
2019-03-23T08:38:32.952Z,10740.00
2019-03-23T08:39:32.942Z,10740.00
2019-03-23T08:40:32.923Z,10716.00
2019-03-23T08:41:32.950Z,10740.00
2019-03-23T08:42:34.965Z,10964.00
2019-03-23T08:43:32.890Z,11040.00
2019-03-23T08:44:32.885Z,10928.00
2019-03-23T08:45:32.920Z,10968.00
2019-03-23T08:46:32.899Z,10940.00
2019-03-23T08:47:32.859Z,10944.00
2019-03-23T08:48:32.841Z,11200.00
2019-03-23T08:49:32.906Z,11084.00
2019-03-23T08:50:32.822Z,11140.00
2019-03-23T08:51:32.848Z,11160.00
2019-03-23T08:52:32.833Z,11292.00
2019-03-23T08:53:32.788Z,11352.00
2019-03-23T08:54:32.804Z,11164.00
2019-03-23T08:55:32.763Z,11424.00
2019-03-23T08:56:32.756Z,11432.00
2019-03-23T08:57:32.761Z,11348.00
2019-03-23T08:58:32.736Z,11396.00
2019-03-23T08:59:32.726Z,11364.00
2019-03-23T09:00:32.714Z,11372.00
2019-03-23T09:01:32.698Z,11496.00
2019-03-23T09:02:32.704Z,11628.00
2019-03-23T09:03:32.683Z,11684.00
2019-03-23T09:04:32.674Z,11588.00
2019-03-23T09:05:32.662Z,11616.00
2019-03-23T09:06:32.651Z,11628.00
2019-03-23T09:07:32.648Z,11700.00
2019-03-23T09:08:32.628Z,11728.00
2019-03-23T09:09:32.619Z,11736.00
2019-03-23T09:10:32.617Z,11688.00
2019-03-23T09:11:32.604Z,11800.00
2019-03-23T09:12:32.585Z,11712.00
2019-03-23T09:13:40.241Z,11768.00
2019-03-23T09:14:33.583Z,11908.00
2019-03-23T09:15:32.553Z,11780.00
2019-03-23T09:16:32.546Z,11668.00
2019-03-23T09:17:32.540Z,11664.00
2019-03-23T09:18:32.559Z,11596.00
2019-03-23T09:19:32.507Z,11644.00
2019-03-23T09:20:32.502Z,11604.00
2019-03-23T09:21:32.507Z,11692.00
2019-03-23T09:22:32.482Z,11636.00
2019-03-23T09:23:32.464Z,11564.00
2019-03-23T09:24:32.471Z,11528.00
2019-03-23T09:25:32.461Z,11628.00
2019-03-23T09:26:32.442Z,11540.00
2019-03-23T09:27:32.428Z,11556.00
2019-03-23T09:28:32.424Z,11628.00
2019-03-23T09:29:32.405Z,11612.00
2019-03-23T09:30:32.396Z,11612.00
2019-03-23T09:31:32.393Z,11532.00
2019-03-23T09:32:32.374Z,11488.00
2019-03-23T09:33:32.385Z,11364.00
2019-03-23T09:34:32.400Z,11508.00
2019-03-23T09:35:32.347Z,11472.00
2019-03-23T09:36:32.337Z,11424.00
2019-03-23T09:37:32.321Z,11656.00
2019-03-23T09:38:32.313Z,11524.00
2019-03-23T09:39:32.326Z,11476.00
2019-03-23T09:40:32.312Z,11464.00
2019-03-23T09:41:32.283Z,11344.00
2019-03-23T09:42:32.272Z,11388.00
2019-03-23T09:43:32.265Z,11340.00
2019-03-23T09:44:32.261Z,11264.00
2019-03-23T09:45:32.251Z,11356.00
2019-03-23T09:46:32.233Z,11668.00
2019-03-23T09:47:32.216Z,11576.00
2019-03-23T09:48:32.203Z,11688.00
2019-03-23T09:49:32.206Z,11788.00
2019-03-23T09:50:32.187Z,11432.00
2019-03-23T09:51:32.194Z,11388.00
2019-03-23T09:52:32.174Z,10992.00
2019-03-23T09:53:32.151Z,10964.00
2019-03-23T09:54:32.145Z,11144.00
2019-03-23T09:55:32.149Z,11120.00
2019-03-23T09:56:32.160Z,11120.00
2019-03-23T09:57:32.118Z,10708.00
2019-03-23T09:58:32.108Z,10640.00
2019-03-23T09:59:32.089Z,10456.00
2019-03-23T10:00:32.087Z,10012.00
2019-03-23T10:01:32.075Z,9828.00
2019-03-23T10:02:32.066Z,10028.00
2019-03-23T10:03:32.065Z,9780.00
2019-03-23T10:04:32.087Z,8956.00
2019-03-23T10:05:32.034Z,8868.00
2019-03-23T10:06:32.023Z,9056.00
2019-03-23T10:07:32.023Z,9304.00
2019-03-23T10:08:32.008Z,8824.00
2019-03-23T10:09:31.990Z,9220.00
2019-03-23T10:10:31.979Z,9316.00
2019-03-23T10:11:32.000Z,8888.00
2019-03-23T10:12:31.958Z,9228.00
2019-03-23T10:13:31.949Z,9256.00
2019-03-23T10:14:31.938Z,9600.00
2019-03-23T10:15:31.924Z,9976.00
2019-03-23T10:16:31.912Z,9904.00
2019-03-23T10:17:31.916Z,10068.00
2019-03-23T10:18:31.909Z,10016.00
2019-03-23T10:19:31.889Z,10176.00
2019-03-23T10:20:31.876Z,9528.00
2019-03-23T10:21:31.892Z,9428.00
2019-03-23T10:22:31.877Z,9196.00
2019-03-23T10:23:31.859Z,9244.00
2019-03-23T10:24:31.830Z,9732.00
2019-03-23T10:25:31.828Z,10216.00
2019-03-23T10:26:31.815Z,10796.00
2019-03-23T10:27:31.840Z,10792.00
2019-03-23T10:28:31.791Z,10404.00
2019-03-23T10:29:31.777Z,10576.00
2019-03-23T10:30:31.764Z,11148.00
2019-03-23T10:31:31.754Z,11384.00
2019-03-23T10:32:31.745Z,11572.00
2019-03-23T10:33:31.780Z,11248.00
2019-03-23T10:34:31.727Z,11868.00
2019-03-23T10:35:31.769Z,11744.00
2019-03-23T10:36:31.706Z,11632.00
2019-03-23T10:37:31.697Z,11668.00
2019-03-23T10:38:31.686Z,11596.00
2019-03-23T10:39:31.689Z,11416.00
2019-03-23T10:40:32.781Z,11292.00
2019-03-23T10:41:31.655Z,11372.00
2019-03-23T10:42:31.639Z,11500.00
2019-03-23T10:43:31.633Z,11756.00
2019-03-23T10:44:31.632Z,11624.00
2019-03-23T10:45:31.613Z,11388.00
2019-03-23T10:46:31.600Z,11544.00
2019-03-23T10:47:31.677Z,11248.00
2019-03-23T10:48:31.583Z,11312.00
2019-03-23T10:49:31.601Z,11508.00
2019-03-23T10:50:31.569Z,11240.00
2019-03-23T10:51:31.547Z,11192.00
2019-03-23T10:52:32.554Z,11272.00
2019-03-23T10:53:31.547Z,11000.00
2019-03-23T10:54:31.520Z,10580.00
2019-03-23T10:55:31.524Z,11044.00
2019-03-23T10:56:31.505Z,11000.00
2019-03-23T10:57:31.485Z,11080.00
2019-03-23T10:58:31.479Z,11128.00
2019-03-23T10:59:31.465Z,11140.00
2019-03-23T11:00:31.475Z,11176.00
2019-03-23T11:01:31.456Z,11152.00
2019-03-23T11:02:31.445Z,11476.00
2019-03-23T11:03:31.439Z,11264.00
2019-03-23T11:04:31.418Z,11232.00
2019-03-23T11:05:31.409Z,11192.00
2019-03-23T11:06:31.407Z,11408.00
2019-03-23T11:07:31.396Z,11468.00
2019-03-23T11:08:31.375Z,11624.00
2019-03-23T11:09:31.378Z,11616.00
2019-03-23T11:10:31.353Z,11688.00
2019-03-23T11:11:31.349Z,11732.00
2019-03-23T11:12:31.346Z,11772.00
2019-03-23T11:13:31.336Z,11824.00
2019-03-23T11:14:31.317Z,11836.00
2019-03-23T11:15:31.311Z,11972.00
2019-03-23T11:16:38.875Z,11972.00
2019-03-23T11:17:31.281Z,11920.00
2019-03-23T11:18:31.276Z,11984.00
2019-03-23T11:19:31.265Z,11860.00
2019-03-23T11:20:31.259Z,12060.00
2019-03-23T11:21:31.257Z,12140.00
2019-03-23T11:22:31.252Z,12300.00
2019-03-23T11:23:31.224Z,12436.00
2019-03-23T11:24:31.210Z,12324.00
2019-03-23T11:25:31.202Z,12316.00
2019-03-23T11:26:31.198Z,12376.00
2019-03-23T11:27:31.202Z,12468.00
2019-03-23T11:28:31.178Z,12460.00
2019-03-23T11:29:31.157Z,12332.00
2019-03-23T11:30:31.148Z,12408.00
2019-03-23T11:31:31.168Z,12760.00
2019-03-23T11:32:31.141Z,12716.00
2019-03-23T11:33:31.122Z,12508.00
2019-03-23T11:34:31.106Z,12480.00
2019-03-23T11:35:31.096Z,12592.00
2019-03-23T11:36:31.118Z,12440.00
2019-03-23T11:37:31.332Z,12500.00
2019-03-23T11:38:31.076Z,12440.00
2019-03-23T11:39:31.063Z,12684.00
2019-03-23T11:40:31.053Z,12600.00
2019-03-23T11:41:31.034Z,12596.00
2019-03-23T11:42:31.030Z,12884.00
2019-03-23T11:43:38.116Z,12840.00
2019-03-23T11:44:31.009Z,12872.00
2019-03-23T11:45:30.994Z,13164.00
2019-03-23T11:46:30.983Z,13332.00
2019-03-23T11:47:30.978Z,13464.00
2019-03-23T11:48:30.968Z,13580.00
2019-03-23T11:49:30.969Z,13432.00
2019-03-23T11:50:38.537Z,13612.00
2019-03-23T11:51:30.937Z,13740.00
2019-03-23T11:52:30.923Z,13928.00
2019-03-23T11:53:30.912Z,14196.00
2019-03-23T11:54:30.917Z,14276.00
2019-03-23T11:55:30.897Z,14392.00
2019-03-23T11:56:30.887Z,14252.00
2019-03-23T11:57:30.876Z,14240.00
2019-03-23T11:58:30.871Z,14456.00
2019-03-23T11:59:37.941Z,14596.00
2019-03-23T12:00:30.839Z,15016.00
2019-03-23T12:01:30.836Z,15496.00
2019-03-23T12:02:30.821Z,16220.00
2019-03-23T12:03:30.809Z,16324.00
2019-03-23T12:04:30.806Z,15712.00
2019-03-23T12:05:30.812Z,15192.00
2019-03-23T12:06:30.783Z,13620.00
2019-03-23T12:07:30.773Z,14696.00
2019-03-23T12:08:30.758Z,14672.00
2019-03-23T12:09:30.752Z,14824.00
2019-03-23T12:10:30.773Z,14548.00
2019-03-23T12:11:30.728Z,14724.00
2019-03-23T12:12:30.721Z,14740.00
2019-03-23T12:13:30.710Z,14936.00
2019-03-23T12:14:30.696Z,14708.00
2019-03-23T12:15:30.686Z,14796.00
2019-03-23T12:16:30.689Z,14872.00
2019-03-23T12:17:30.666Z,14688.00
2019-03-23T12:18:30.660Z,14768.00
2019-03-23T12:19:30.667Z,14864.00
2019-03-23T12:20:30.644Z,15064.00
2019-03-23T12:21:30.634Z,15128.00
2019-03-23T12:22:30.620Z,14836.00
2019-03-23T12:23:30.605Z,15068.00
2019-03-23T12:24:30.600Z,15264.00
2019-03-23T12:25:30.587Z,15704.00
2019-03-23T12:26:30.631Z,16092.00
2019-03-23T12:27:30.573Z,16896.00